Time;durP1;ratioP1;P1;durP2;ratioP2;P2;SDS_P1;SDS_P2;PMS_P1;PMS_P2;Temp;Humidity;BMP_temperature;BMP_pressure;BME280_temperature;BME280_humidity;BME280_pressure;Samples;Min_cycle;Max_cycle;Signal;HPM_P1;HPM_P2
2023/01/12 00:02:14;;;;;;;18.48;16.80;;;5.30;99.90;;;;;;3949640;30;20291;-88
2023/01/12 00:04:34;;;;;;;19.27;17.38;;;5.30;99.90;;;;;;3960424;30;20045;-88
2023/01/12 00:06:54;;;;;;;21.30;19.02;;;5.40;99.90;;;;;;3947378;30;20055;-88
2023/01/12 00:09:14;;;;;;;26.75;20.02;;;5.40;99.90;;;;;;3948918;30;20054;-88
2023/01/12 00:11:39;;;;;;;20.27;17.75;;;5.30;99.90;;;;;;3948294;30;20097;-88
2023/01/12 00:13:58;;;;;;;29.02;21.35;;;5.20;99.90;;;;;;3948689;30;20054;-88
2023/01/12 00:16:33;;;;;;;30.00;21.38;;;5.10;99.90;;;;;;3948697;30;20133;-88
2023/01/12 00:18:53;;;;;;;26.08;20.02;;;5.10;99.90;;;;;;3960390;30;20122;-88
2023/01/12 00:21:14;;;;;;;14.45;13.25;;;5.20;99.90;;;;;;3947722;30;20056;-88
2023/01/12 00:23:34;;;;;;;12.25;11.35;;;5.20;99.90;;;;;;3960577;30;20046;-88
2023/01/12 00:25:54;;;;;;;14.43;12.27;;;5.20;99.90;;;;;;3960291;30;20061;-88
2023/01/12 00:28:14;;;;;;;13.93;12.65;;;5.30;99.90;;;;;;3947822;30;20059;-88
2023/01/12 00:30:34;;;;;;;12.95;11.65;;;5.30;99.90;;;;;;3948542;30;20125;-88
2023/01/12 00:32:53;;;;;;;12.07;11.00;;;5.30;99.90;;;;;;3947454;30;20102;-88
2023/01/12 00:35:16;;;;;;;13.15;11.90;;;5.40;99.90;;;;;;3947783;30;20093;-88
2023/01/12 00:37:36;;;;;;;16.10;13.23;;;5.40;99.90;;;;;;3948633;30;20090;-88
2023/01/12 00:39:56;;;;;;;19.45;17.45;;;5.40;99.90;;;;;;3949936;30;20059;-88
2023/01/12 00:47:41;;;;;;;19.63;17.58;;;5.30;99.90;;;;;;3948727;30;20074;-88
2023/01/12 00:50:01;;;;;;;22.85;19.00;;;5.10;99.90;;;;;;3948375;30;20367;-88
2023/01/12 00:52:21;;;;;;;21.98;19.60;;;5.00;99.90;;;;;;3949399;30;20354;-88
2023/01/12 00:54:50;;;;;;;21.77;18.60;;;5.00;99.90;;;;;;3958937;30;20055;-88
2023/01/12 00:57:12;;;;;;;20.80;18.73;;;5.00;99.90;;;;;;3948350;30;20058;-88
2023/01/12 00:59:35;;;;;;;23.60;21.10;;;5.00;99.90;;;;;;3948386;30;20058;-88
2023/01/12 01:01:55;;;;;;;;;;;4.90;99.90;;;;;;3949258;30;20105;-88
2023/01/12 01:04:15;;;;;;;23.83;21.35;;;4.90;99.90;;;;;;3947917;30;19929;-88
2023/01/12 01:06:38;;;;;;;25.48;21.35;;;4.90;99.90;;;;;;3960542;30;20051;-88
2023/01/12 01:08:58;;;;;;;21.98;19.65;;;5.00;99.90;;;;;;3959590;30;20074;-88
2023/01/12 01:11:18;;;;;;;22.13;19.77;;;5.00;99.90;;;;;;3947737;30;20074;-88
2023/01/12 01:13:40;;;;;;;23.70;20.92;;;4.90;99.90;;;;;;3947493;30;20077;-88
2023/01/12 01:16:01;;;;;;;22.25;20.23;;;4.90;99.90;;;;;;3947249;30;20089;-88
2023/01/12 01:18:22;;;;;;;28.30;23.13;;;4.90;99.90;;;;;;3947393;30;20051;-88
2023/01/12 01:20:46;;;;;;;24.13;21.38;;;4.90;99.90;;;;;;3946890;30;20288;-88
2023/01/12 01:23:06;;;;;;;28.50;22.83;;;4.90;99.90;;;;;;3948627;30;20089;-88
2023/01/12 01:25:26;;;;;;;30.75;24.08;;;4.80;99.90;;;;;;3948262;30;20063;-88
2023/01/12 01:27:46;;;;;;;29.77;24.45;;;4.80;99.90;;;;;;3948196;30;20086;-88
2023/01/12 01:30:06;;;;;;;30.13;25.13;;;4.80;99.90;;;;;;3945733;30;20231;-88
2023/01/12 01:32:26;;;;;;;27.45;23.05;;;4.80;99.90;;;;;;3948179;30;20282;-88
2023/01/12 01:34:47;;;;;;;32.85;24.55;;;4.80;99.90;;;;;;3946896;30;20075;-88
2023/01/12 01:37:06;;;;;;;25.30;20.75;;;4.80;99.90;;;;;;3960473;30;20310;-88
2023/01/12 01:39:26;;;;;;;29.30;25.95;;;4.80;99.90;;;;;;3959706;30;20066;-88
2023/01/12 01:41:46;;;;;;;22.58;19.92;;;4.80;99.90;;;;;;3946257;30;20062;-88
2023/01/12 01:44:28;;;;;;;24.33;21.92;;;4.80;99.90;;;;;;3948107;30;20043;-88
2023/01/12 01:47:00;;;;;;;25.17;20.92;;;4.90;99.90;;;;;;3947186;30;20381;-88
2023/01/12 01:49:41;;;;;;;28.77;20.75;;;4.90;99.90;;;;;;3959426;30;20078;-88
2023/01/12 01:52:11;;;;;;;19.05;16.90;;;5.00;99.90;;;;;;3957489;29;20088;-88
2023/01/12 01:54:36;;;;;;;15.88;14.27;;;5.00;99.90;;;;;;3946663;30;20054;-88
2023/01/12 01:56:56;;;;;;;16.73;15.02;;;5.10;99.90;;;;;;3959677;30;20144;-88
2023/01/12 01:59:21;;;;;;;19.25;16.77;;;5.10;99.90;;;;;;3945620;30;20050;-88
2023/01/12 02:01:41;;;;;;;16.35;14.73;;;5.10;99.90;;;;;;3947389;30;20078;-88
2023/01/12 02:04:02;;;;;;;18.15;16.33;;;5.20;99.90;;;;;;3958655;30;20092;-88
2023/01/12 02:06:25;;;;;;;23.58;18.77;;;5.20;99.90;;;;;;3947225;30;20093;-88
2023/01/12 02:08:45;;;;;;;;;;;5.20;99.90;;;;;;3948050;30;20366;-88
2023/01/12 02:16:19;;;;;;;21.40;16.58;;;5.10;99.90;;;;;;3958381;30;19989;-88
2023/01/12 02:16:29;;;;;;;20.15;18.35;;;5.00;99.90;;;;;;3946662;30;20058;-88
2023/01/12 02:19:21;;;;;;;18.90;17.25;;;5.00;99.90;;;;;;3947304;30;20377;-88
2023/01/12 02:21:55;;;;;;;23.70;19.58;;;5.00;99.90;;;;;;3958371;30;20157;-88
2023/01/12 02:24:24;;;;;;;22.25;19.85;;;5.00;99.90;;;;;;3948058;30;20075;-88
2023/01/12 02:26:53;;;;;;;24.08;20.80;;;5.00;99.90;;;;;;3949534;30;20050;-88
2023/01/12 02:29:40;;;;;;;26.60;20.73;;;5.00;99.90;;;;;;3962270;30;20069;-88
2023/01/12 02:32:38;;;;;;;23.70;21.45;;;5.00;99.90;;;;;;3949984;30;20074;-88
2023/01/12 02:35:07;;;;;;;26.80;20.30;;;5.00;99.90;;;;;;3946665;30;20107;-88
2023/01/12 02:37:42;;;;;;;24.23;21.73;;;5.10;99.90;;;;;;3953067;30;20097;-88
2023/01/12 02:40:08;;;;;;;25.45;22.40;;;5.10;99.90;;;;;;3956531;30;20051;-89
2023/01/12 02:42:40;;;;;;;24.35;21.75;;;5.10;99.90;;;;;;3961869;30;20089;-88
2023/01/12 02:45:25;;;;;;;25.45;22.88;;;5.00;99.90;;;;;;3950080;30;20431;-89
2023/01/12 02:47:47;;;;;;;25.95;23.40;;;5.00;99.90;;;;;;3949774;30;20085;-88
2023/01/12 02:50:14;;;;;;;23.02;20.63;;;5.00;99.90;;;;;;3949141;30;20086;-88
2023/01/12 02:52:35;;;;;;;31.13;23.55;;;5.00;99.90;;;;;;3949714;30;20094;-88
2023/01/12 02:54:57;;;;;;;26.52;22.17;;;5.00;99.90;;;;;;3949492;30;20059;-88
2023/01/12 02:57:20;;;;;;;24.85;22.52;;;5.00;99.90;;;;;;3949794;30;20055;-88
2023/01/12 02:59:41;;;;;;;;;;;5.00;99.90;;;;;;3948545;30;20306;-89
2023/01/12 03:02:18;;;;;;;22.88;19.67;;;5.00;99.90;;;;;;3949974;30;19964;-89
2023/01/12 03:04:39;;;;;;;21.77;19.48;;;5.00;99.90;;;;;;3960718;30;20111;-89
2023/01/12 03:06:59;;;;;;;20.63;18.83;;;5.00;99.90;;;;;;3948259;30;20090;-88
2023/01/12 03:09:19;;;;;;;21.30;19.17;;;5.00;99.90;;;;;;3960540;30;20050;-89
2023/01/12 03:11:42;;;;;;;20.83;17.67;;;4.90;99.90;;;;;;3949002;30;20130;-89
2023/01/12 03:14:04;;;;;;;19.88;17.95;;;4.90;99.90;;;;;;3949766;30;20154;-88
2023/01/12 03:16:28;;;;;;;19.10;17.23;;;4.90;99.90;;;;;;3949280;30;20089;-89
2023/01/12 03:18:56;;;;;;;19.23;16.15;;;4.90;99.90;;;;;;3948599;30;20093;-88
2023/01/12 03:21:41;;;;;;;16.55;15.00;;;4.90;99.90;;;;;;3949340;30;20055;-88
2023/01/12 03:24:09;;;;;;;15.18;13.73;;;4.90;99.90;;;;;;3950246;30;20310;-88
2023/01/12 03:26:33;;;;;;;15.82;13.93;;;4.90;99.90;;;;;;3949730;30;20086;-88
2023/01/12 03:28:57;;;;;;;;;;;5.00;99.90;;;;;;3950337;30;20074;-88
2023/01/12 03:31:18;;;;;;;17.15;15.75;;;5.00;99.90;;;;;;3948693;30;20100;-88
2023/01/12 03:33:42;;;;;;;19.98;16.45;;;5.00;99.90;;;;;;3947961;30;20062;-89
2023/01/12 03:36:17;;;;;;;19.35;17.55;;;5.00;99.90;;;;;;3947815;30;20386;-88
2023/01/12 03:39:05;;;;;;;20.75;18.80;;;4.90;99.90;;;;;;3961408;30;20438;-89
2023/01/12 03:41:44;;;;;;;20.90;18.98;;;4.90;99.90;;;;;;3949311;30;20163;-88
2023/01/12 03:44:07;;;;;;;16.80;15.23;;;4.90;99.90;;;;;;3949175;30;20082;-88
2023/01/12 03:46:43;;;;;;;16.08;14.27;;;5.00;99.90;;;;;;3952382;30;20358;-88
2023/01/12 03:49:30;;;;;;;17.88;16.25;;;5.10;99.90;;;;;;3950214;30;20081;-89
2023/01/12 03:51:52;;;;;;;12.35;11.18;;;5.10;99.90;;;;;;3948856;30;20055;-89
2023/01/12 03:54:13;;;;;;;11.30;10.23;;;5.20;99.90;;;;;;3949178;30;20378;-89
2023/01/12 03:56:35;;;;;;;9.35;8.77;;;5.30;99.90;;;;;;3950499;30;20055;-88
2023/01/12 03:58:56;;;;;;;15.27;13.70;;;5.40;99.90;;;;;;3949227;30;20062;-89
2023/01/12 04:01:16;;;;;;;18.85;16.52;;;5.30;99.90;;;;;;3950037;30;20059;-88
2023/01/12 04:03:35;;;;;;;16.08;14.77;;;5.20;99.90;;;;;;3948122;30;20055;-88
2023/01/12 04:05:56;;;;;;;15.93;14.77;;;5.20;99.90;;;;;;3949568;30;20064;-88
2023/01/12 04:08:16;;;;;;;10.50;9.68;;;5.20;99.90;;;;;;3960574;30;20115;-88
2023/01/12 04:10:35;;;;;;;23.05;17.65;;;5.30;99.90;;;;;;3948538;30;20051;-88
2023/01/12 04:12:56;;;;;;;14.93;13.52;;;5.30;99.90;;;;;;3948357;30;20313;-88
2023/01/12 04:15:15;;;;;;;15.82;14.25;;;5.10;99.90;;;;;;3947507;30;20085;-89
2023/01/12 04:17:35;;;;;;;17.30;14.85;;;5.10;99.90;;;;;;3948678;30;20054;-88
2023/01/12 04:19:55;;;;;;;16.20;14.80;;;5.10;99.90;;;;;;3949063;30;20055;-89
2023/01/12 04:24:54;;;;;;;19.13;17.13;;;5.10;99.90;;;;;;3949092;30;20433;-88
2023/01/12 04:27:15;;;;;;;22.42;17.52;;;5.10;99.90;;;;;;3947332;30;20059;-88
2023/01/12 04:29:35;;;;;;;18.27;16.40;;;5.00;99.90;;;;;;3959559;30;20086;-89
2023/01/12 04:31:55;;;;;;;17.35;15.60;;;5.00;99.90;;;;;;3946911;30;20055;-89
2023/01/12 04:34:16;;;;;;;18.92;15.10;;;5.00;99.90;;;;;;3948085;30;20055;-88
2023/01/12 04:36:35;;;;;;;18.35;16.65;;;5.00;99.90;;;;;;3948407;30;20051;-89
2023/01/12 04:38:55;;;;;;;23.77;17.00;;;5.00;99.90;;;;;;3960474;30;20100;-89
2023/01/12 04:41:16;;;;;;;15.30;13.45;;;5.00;99.90;;;;;;3949625;30;20282;-89
2023/01/12 04:43:36;;;;;;;14.80;13.35;;;5.10;99.90;;;;;;3961012;30;20046;-89
2023/01/12 04:45:56;;;;;;;16.63;15.20;;;5.10;99.90;;;;;;3948225;30;20120;-89
2023/01/12 04:48:18;;;;;;;17.63;15.32;;;5.10;99.90;;;;;;3959676;30;20135;-88
2023/01/12 04:50:41;;;;;;;14.43;13.30;;;5.10;99.90;;;;;;3959675;30;20088;-89
2023/01/12 04:53:02;;;;;;;15.32;14.20;;;5.10;99.90;;;;;;3947977;30;20054;-88
2023/01/12 04:55:23;;;;;;;15.57;14.45;;;5.10;99.90;;;;;;3960192;30;20096;-89
2023/01/12 04:57:43;;;;;;;12.30;11.25;;;5.10;99.90;;;;;;3949691;30;20266;-88
2023/01/12 05:00:04;;;;;;;13.15;12.02;;;5.20;99.90;;;;;;3947764;30;20071;-88
2023/01/12 05:02:24;;;;;;;11.45;10.73;;;5.20;99.90;;;;;;3947810;30;20172;-88
2023/01/12 05:04:46;;;;;;;11.95;10.95;;;5.20;99.90;;;;;;3948015;30;20055;-88
2023/01/12 05:07:06;;;;;;;11.75;10.90;;;5.20;99.90;;;;;;3948466;30;20134;-88
2023/01/12 05:12:09;;;;;;;9.48;8.98;;;5.20;99.90;;;;;;3948566;30;20125;-89
2023/01/12 05:14:29;;;;;;;12.98;11.65;;;5.10;99.90;;;;;;3950501;30;20051;-88
2023/01/12 05:16:49;;;;;;;18.05;13.18;;;5.10;99.90;;;;;;3947929;30;20116;-88
2023/01/12 05:19:09;;;;;;;12.95;11.77;;;5.10;99.90;;;;;;3948324;30;20070;-89
2023/01/12 05:21:29;;;;;;;7.55;6.93;;;5.00;99.90;;;;;;3947756;30;20090;-88
2023/01/12 05:23:51;;;;;;;6.25;5.93;;;5.00;99.90;;;;;;3947202;30;20124;-88
2023/01/12 05:26:11;;;;;;;5.53;5.32;;;5.10;99.90;;;;;;3948282;30;20345;-89
2023/01/12 05:28:32;;;;;;;6.38;6.03;;;5.10;99.90;;;;;;3947436;30;20056;-89
2023/01/12 05:30:52;;;;;;;19.75;16.48;;;5.10;99.90;;;;;;3948909;30;20092;-88
2023/01/12 05:33:15;;;;;;;12.85;11.85;;;5.10;99.90;;;;;;3959039;30;20294;-88
2023/01/12 05:35:37;;;;;;;9.32;8.63;;;5.20;99.90;;;;;;3946769;30;20094;-88
2023/01/12 05:37:57;;;;;;;7.57;7.17;;;5.10;99.90;;;;;;3947320;30;20062;-88
2023/01/12 05:40:17;;;;;;;7.32;6.75;;;5.10;99.90;;;;;;3947724;30;20100;-88
2023/01/12 05:45:16;;;;;;;18.10;13.40;;;5.10;99.90;;;;;;3947894;30;20074;-88
2023/01/12 05:47:36;;;;;;;19.08;16.05;;;5.10;99.90;;;;;;3948118;30;20105;-88
2023/01/12 05:49:56;;;;;;;21.13;13.43;;;5.00;99.90;;;;;;3947614;30;20059;-88
2023/01/12 05:52:16;;;;;;;17.90;15.35;;;4.90;99.90;;;;;;3948040;30;20063;-88
2023/01/12 05:54:36;;;;;;;11.75;10.90;;;4.90;99.90;;;;;;3947258;30;20042;-88
2023/01/12 05:56:56;;;;;;;12.75;11.48;;;4.80;99.90;;;;;;3947366;30;20282;-89
2023/01/12 05:59:16;;;;;;;14.60;13.10;;;4.70;99.90;;;;;;3947496;30;20079;-88
2023/01/12 06:01:39;;;;;;;11.18;10.43;;;4.60;99.90;;;;;;3945937;30;20052;-89
2023/01/12 06:04:00;;;;;;;11.57;10.03;;;4.70;99.90;;;;;;3946218;30;20393;-89
2023/01/12 06:06:22;;;;;;;10.60;9.60;;;4.60;99.90;;;;;;3948061;30;20080;-89
2023/01/12 06:08:42;;;;;;;9.43;8.52;;;4.50;99.90;;;;;;3946973;30;20117;-89
2023/01/12 06:11:03;;;;;;;9.52;8.88;;;4.50;99.90;;;;;;3947773;30;20314;-88
2023/01/12 06:16:04;;;;;;;25.80;17.60;;;4.40;99.90;;;;;;3947895;30;20239;-88
2023/01/12 06:18:24;;;;;;;16.38;13.65;;;4.40;99.90;;;;;;3949894;30;20058;-89
2023/01/12 06:20:44;;;;;;;26.08;16.55;;;4.30;99.90;;;;;;3947091;30;20239;-88
2023/01/12 06:23:04;;;;;;;15.25;13.77;;;4.30;99.90;;;;;;3959260;30;20058;-88
2023/01/12 06:25:25;;;;;;;13.88;12.65;;;4.30;99.90;;;;;;3947816;30;20055;-89
2023/01/12 06:27:45;;;;;;;14.57;13.18;;;4.40;99.90;;;;;;3959314;30;20093;-92
2023/01/12 06:30:07;;;;;;;14.00;12.63;;;4.40;99.90;;;;;;3948008;30;20047;-91
2023/01/12 06:32:27;;;;;;;14.27;12.98;;;4.40;99.90;;;;;;3947028;30;20056;-91
2023/01/12 06:34:47;;;;;;;13.75;12.85;;;4.40;99.90;;;;;;3946331;30;20063;-91
2023/01/12 06:37:10;;;;;;;13.20;11.98;;;4.40;99.90;;;;;;3947212;30;20319;-91
2023/01/12 06:39:30;;;;;;;11.98;11.25;;;4.30;99.90;;;;;;3961159;30;20092;-92
2023/01/12 06:44:29;;;;;;;15.50;13.90;;;4.10;99.90;;;;;;3947278;30;20051;-92
2023/01/12 06:46:49;;;;;;;15.07;13.52;;;4.10;99.90;;;;;;3946955;30;20054;-92
2023/01/12 06:49:09;;;;;;;19.30;14.63;;;4.10;99.90;;;;;;3946898;30;20079;-92
2023/01/12 06:51:29;;;;;;;16.42;12.73;;;4.20;99.90;;;;;;3948018;30;20093;-91
2023/01/12 06:53:50;;;;;;;13.13;12.00;;;4.20;99.90;;;;;;3959226;30;20276;-91
2023/01/12 06:56:10;;;;;;;22.08;14.60;;;4.20;99.90;;;;;;3946228;30;20070;-90
2023/01/12 06:58:30;;;;;;;19.70;15.20;;;4.20;99.90;;;;;;3948628;30;20090;-91
2023/01/12 07:00:50;;;;;;;30.27;20.70;;;4.10;99.90;;;;;;3947272;30;20055;-90
2023/01/12 07:03:16;;;;;;;12.70;11.70;;;4.10;99.90;;;;;;3958898;30;20105;-90
2023/01/12 07:05:36;;;;;;;11.63;10.73;;;4.20;99.90;;;;;;3949928;30;20263;-91
2023/01/12 07:07:59;;;;;;;9.75;9.05;;;4.20;99.90;;;;;;3958957;30;20117;-91
2023/01/12 07:10:19;;;;;;;11.93;10.73;;;4.30;99.90;;;;;;3950268;30;20094;-91
2023/01/12 07:12:38;;;;;;;14.48;13.02;;;4.20;99.90;;;;;;3949457;30;20289;-91
2023/01/12 07:14:59;;;;;;;16.23;14.27;;;4.10;99.90;;;;;;3949606;30;20062;-91
2023/01/12 07:17:19;;;;;;;17.15;14.85;;;4.00;99.90;;;;;;3948677;30;20078;-91
2023/01/12 07:19:39;;;;;;;9.80;9.23;;;4.10;99.90;;;;;;3949903;30;20055;-91
2023/01/12 07:22:00;;;;;;;10.90;9.73;;;4.10;99.90;;;;;;3950780;30;20120;-91
2023/01/12 07:24:21;;;;;;;10.57;9.77;;;4.20;99.90;;;;;;3948944;30;20051;-91
2023/01/12 07:26:41;;;;;;;4.68;4.47;;;4.20;99.90;;;;;;3951820;30;20078;-91
2023/01/12 07:29:01;;;;;;;4.93;4.82;;;4.60;99.90;;;;;;3960708;30;20058;-91
2023/01/12 07:31:21;;;;;;;18.23;15.23;;;4.90;99.90;;;;;;3949231;30;20166;-91
2023/01/12 07:33:41;;;;;;;23.65;18.83;;;4.80;99.90;;;;;;3949345;30;20526;-91
2023/01/12 07:36:01;;;;;;;18.58;16.70;;;4.50;99.90;;;;;;3950079;30;20059;-91
2023/01/12 07:38:21;;;;;;;15.35;13.77;;;4.20;99.90;;;;;;3949105;30;20069;-90
2023/01/12 07:40:41;;;;;;;18.48;13.77;;;4.10;99.90;;;;;;3949182;30;20059;-91
2023/01/12 07:43:06;;;;;;;13.93;12.63;;;4.00;99.90;;;;;;3950090;30;20281;-91
2023/01/12 07:45:27;;;;;;;16.25;14.88;;;3.90;99.90;;;;;;3949673;30;20077;-91
2023/01/12 07:47:52;;;;;;;12.85;11.60;;;3.90;99.90;;;;;;3950641;30;20062;-91
2023/01/12 07:50:12;;;;;;;25.13;17.00;;;4.00;99.90;;;;;;3947924;30;20119;-91
2023/01/12 07:52:32;;;;;;;14.98;13.25;;;4.10;99.90;;;;;;3948279;30;20070;-91
2023/01/12 07:54:52;;;;;;;9.40;9.00;;;4.10;99.90;;;;;;3947893;30;20074;-91
2023/01/12 07:57:12;;;;;;;7.53;7.20;;;4.10;99.90;;;;;;3949188;30;20059;-91
2023/01/12 07:59:31;;;;;;;7.75;7.35;;;4.20;99.90;;;;;;3950555;30;20066;-91
2023/01/12 08:01:53;;;;;;;6.63;6.22;;;4.50;99.90;;;;;;3953157;30;20055;-91
2023/01/12 08:04:13;;;;;;;8.38;7.75;;;4.60;99.90;;;;;;3948481;30;20046;-90
2023/01/12 08:06:34;;;;;;;9.00;8.48;;;4.70;99.90;;;;;;3948180;30;20263;-91
2023/01/12 08:08:54;;;;;;;17.08;15.32;;;4.60;99.90;;;;;;3959098;30;20101;-91
2023/01/12 08:11:14;;;;;;;17.20;15.85;;;4.60;99.90;;;;;;3948102;30;20063;-90
2023/01/12 08:13:34;;;;;;;18.48;14.57;;;4.60;99.90;;;;;;3949045;30;20047;-91
2023/01/12 08:15:56;;;;;;;14.65;12.93;;;4.70;99.90;;;;;;3948021;30;20254;-91
2023/01/12 08:18:42;;;;;;;12.73;11.45;;;4.80;99.90;;;;;;3961330;30;20163;-90
2023/01/12 08:21:08;;;;;;;9.88;9.35;;;4.80;99.90;;;;;;3959141;30;20065;-90
2023/01/12 08:23:34;;;;;;;7.63;7.32;;;4.70;99.90;;;;;;3962802;30;20123;-90
2023/01/12 08:26:00;;;;;;;7.60;7.20;;;4.90;99.90;;;;;;3960160;30;20059;-90
2023/01/12 08:28:35;;;;;;;8.15;7.85;;;5.00;99.90;;;;;;3962629;30;20054;-90
2023/01/12 08:30:56;;;;;;;6.07;5.78;;;5.00;99.90;;;;;;3959663;30;20050;-91
2023/01/12 08:33:16;;;;;;;7.35;6.70;;;5.20;99.90;;;;;;3948136;30;20043;-91
2023/01/12 08:35:36;;;;;;;7.30;6.97;;;5.30;99.90;;;;;;3949334;30;20120;-91
2023/01/12 08:37:56;;;;;;;6.50;6.20;;;5.50;99.90;;;;;;3948499;30;20051;-90
2023/01/12 08:40:17;;;;;;;6.10;5.90;;;6.00;99.90;;;;;;3948360;30;20239;-90
2023/01/12 08:42:37;;;;;;;21.85;15.10;;;6.00;99.90;;;;;;3948754;30;20101;-91
2023/01/12 08:44:56;;;;;;;26.42;17.50;;;6.00;99.90;;;;;;3948355;30;20247;-91
2023/01/12 08:47:20;;;;;;;14.40;11.35;;;6.00;99.90;;;;;;3960977;30;20263;-90
2023/01/12 08:49:40;;;;;;;13.27;10.73;;;6.20;99.90;;;;;;3947355;30;20111;-91
2023/01/12 08:52:01;;;;;;;20.40;13.88;;;6.30;99.90;;;;;;3947830;30;20054;-90
2023/01/12 08:54:23;;;;;;;44.78;27.10;;;6.30;99.90;;;;;;3947331;30;20270;-90
2023/01/12 08:56:43;;;;;;;14.07;12.63;;;6.30;99.90;;;;;;3948060;30;20055;-90
2023/01/12 08:59:03;;;;;;;15.05;11.18;;;6.20;99.90;;;;;;3948857;30;20061;-91
2023/01/12 09:01:23;;;;;;;9.30;8.90;;;6.10;99.90;;;;;;3948472;30;20115;-91
2023/01/12 09:03:44;;;;;;;11.30;10.50;;;6.10;99.90;;;;;;3947395;30;20061;-90
2023/01/12 09:06:13;;;;;;;10.77;9.82;;;6.10;99.90;;;;;;3959592;30;20058;-91
2023/01/12 09:08:33;;;;;;;10.63;9.98;;;6.30;99.90;;;;;;3947475;30;20378;-91
2023/01/12 09:11:00;;;;;;;5.75;5.43;;;6.50;99.90;;;;;;3948072;30;20054;-91
2023/01/12 09:13:20;;;;;;;5.13;5.03;;;6.90;99.90;;;;;;3947308;30;20047;-90
2023/01/12 09:15:40;;;;;;;6.82;6.38;;;7.10;99.90;;;;;;3948599;30;20085;-90
2023/01/12 09:18:00;;;;;;;8.00;7.28;;;7.20;99.90;;;;;;3959637;30;20049;-90
2023/01/12 09:20:21;;;;;;;8.70;8.25;;;7.20;99.90;;;;;;3949959;30;20110;-90
2023/01/12 09:22:41;;;;;;;8.15;7.72;;;7.10;99.90;;;;;;3959818;30;20124;-90
2023/01/12 09:25:00;;;;;;;7.30;6.90;;;7.10;99.90;;;;;;3948069;30;20051;-91
2023/01/12 09:27:20;;;;;;;7.47;7.18;;;7.10;99.90;;;;;;3959880;30;20309;-90
2023/01/12 09:29:40;;;;;;;8.07;7.57;;;7.10;99.90;;;;;;3947900;30;20441;-90
2023/01/12 09:32:00;;;;;;;10.65;9.82;;;7.10;99.90;;;;;;3948142;30;20384;-90
2023/01/12 09:34:20;;;;;;;7.57;7.25;;;7.40;99.90;;;;;;3948245;30;20092;-90
2023/01/12 09:36:40;;;;;;;5.70;5.50;;;7.60;99.90;;;;;;3962048;30;20391;-90
2023/01/12 09:39:00;;;;;;;6.03;5.80;;;7.80;99.90;;;;;;3946981;30;20208;-90
2023/01/12 09:47:07;;;;;;;4.10;4.00;;;8.10;99.90;;;;;;3948065;30;20047;-90
2023/01/12 09:49:35;;;;;;;5.57;5.47;;;8.10;99.90;;;;;;3947252;30;20416;-90
2023/01/12 09:51:55;;;;;;;13.52;12.82;;;8.10;99.90;;;;;;3946857;30;20055;-90
2023/01/12 09:54:16;;;;;;;7.53;7.22;;;8.10;99.90;;;;;;3943470;30;20318;-89
2023/01/12 09:56:50;;;;;;;4.35;4.25;;;8.10;99.90;;;;;;3946971;30;20051;-90
2023/01/12 09:59:38;;;;;;;4.07;3.97;;;8.30;99.90;;;;;;3959233;30;20047;-90
2023/01/12 10:01:58;;;;;;;4.90;4.70;;;8.70;99.90;;;;;;3946873;30;20055;-90
2023/01/12 10:04:19;;;;;;;4.22;4.13;;;8.60;99.90;;;;;;3947208;30;20051;-90
2023/01/12 10:06:39;;;;;;;4.13;4.03;;;8.80;99.90;;;;;;3959370;29;20120;-90
2023/01/12 10:09:02;;;;;;;4.07;3.88;;;8.90;99.90;;;;;;3958717;30;20246;-90
2023/01/12 10:12:11;;;;;;;6.10;5.80;;;9.00;99.90;;;;;;3959544;30;20058;-90
2023/01/12 10:14:31;;;;;;;4.10;4.00;;;9.50;99.90;;;;;;3950807;30;20295;-90
2023/01/12 10:17:32;;;;;;;3.90;3.80;;;9.40;99.90;;;;;;3946922;30;20062;-90
2023/01/12 10:20:08;;;;;;;4.57;4.40;;;9.20;99.90;;;;;;3957124;30;20051;-89
2023/01/12 10:22:38;;;;;;;3.92;3.83;;;9.00;99.90;;;;;;3951352;30;20097;-89
2023/01/12 10:24:58;;;;;;;5.05;4.88;;;8.90;99.90;;;;;;3946452;30;20118;-90
2023/01/12 10:27:18;;;;;;;4.85;4.72;;;8.90;99.90;;;;;;3947235;30;20047;-90
2023/01/12 10:29:38;;;;;;;3.53;3.42;;;9.00;99.90;;;;;;3947643;30;20097;-89
2023/01/12 10:31:58;;;;;;;4.40;4.20;;;9.10;99.90;;;;;;3947660;30;20119;-90
2023/01/12 10:34:18;;;;;;;4.10;4.00;;;9.20;99.90;;;;;;3958816;30;20096;-89
2023/01/12 10:36:48;;;;;;;3.75;3.65;;;9.20;99.90;;;;;;3947291;30;20120;-90
2023/01/12 10:39:37;;;;;;;3.90;3.80;;;9.30;99.90;;;;;;3947881;30;20066;-89
2023/01/12 10:45:12;;;;;;;5.40;5.30;;;9.50;99.90;;;;;;3948599;30;20058;-90
2023/01/12 10:47:33;;;;;;;7.75;7.40;;;9.50;99.90;;;;;;3948972;30;20094;-89
2023/01/12 10:50:31;;;;;;;8.70;8.35;;;9.60;99.90;;;;;;3950094;30;20055;-90
2023/01/12 10:52:59;;;;;;;4.20;3.25;;;9.60;99.90;;;;;;3949700;30;20091;-90
2023/01/12 10:55:21;;;;;;;6.88;6.22;;;9.70;99.90;;;;;;3950050;30;20062;-90
2023/01/12 10:57:43;;;;;;;4.30;4.10;;;9.70;99.90;;;;;;3962547;30;20085;-90
2023/01/12 11:00:04;;;;;;;14.00;11.35;;;9.90;99.90;;;;;;3950143;30;20377;-90
2023/01/12 11:02:27;;;;;;;5.18;4.78;;;9.90;99.90;;;;;;3948444;30;20131;-90
2023/01/12 11:04:49;;;;;;;;;;;9.90;99.90;;;;;;3960834;30;20297;-90
2023/01/12 11:07:21;;;;;;;3.42;3.33;;;10.10;99.90;;;;;;3948986;30;19936;-90
2023/01/12 11:09:44;;;;;;;4.20;4.10;;;10.10;99.90;;;;;;3961128;30;20092;-89
2023/01/12 11:12:25;;;;;;;3.72;3.63;;;10.10;99.90;;;;;;3949128;30;20116;-89
2023/01/12 11:15:17;;;;;;;5.38;5.13;;;10.20;99.90;;;;;;3949107;30;20385;-89
2023/01/12 11:17:47;;;;;;;3.38;3.17;;;10.50;99.90;;;;;;3954482;30;20079;-89
2023/01/12 11:20:23;;;;;;;4.13;3.97;;;10.50;99.90;;;;;;3962103;29;20175;-89
2023/01/12 11:22:45;;;;;;;3.83;3.72;;;10.50;99.90;;;;;;3966169;30;20151;-90
2023/01/12 11:25:13;;;;;;;6.68;6.05;;;10.60;99.90;;;;;;3962870;29;20093;-90
2023/01/12 11:27:44;;;;;;;16.30;13.70;;;10.70;99.90;;;;;;3964418;30;20119;-89
2023/01/12 11:30:24;;;;;;;5.68;5.35;;;11.20;99.90;;;;;;3965142;30;20267;-91
2023/01/12 11:32:59;;;;;;;3.58;3.38;;;11.40;99.90;;;;;;3960825;30;20404;-91
2023/01/12 11:35:37;;;;;;;3.35;3.25;;;11.40;99.90;;;;;;3963836;30;20384;-90
2023/01/12 11:38:02;;;;;;;3.90;3.80;;;11.50;99.90;;;;;;3950569;30;20071;-92
2023/01/12 11:40:33;;;;;;;3.65;3.55;;;11.90;99.90;;;;;;3951160;30;20113;-91
2023/01/12 11:45:52;;;;;;;2.88;2.85;;;12.30;99.90;;;;;;3962709;29;20373;-91
2023/01/12 11:48:20;;;;;;;4.93;4.63;;;12.00;99.90;;;;;;3957244;30;20285;-92
2023/01/12 11:50:42;;;;;;;4.28;2.47;;;11.80;99.90;;;;;;3963393;30;20104;-91
2023/01/12 11:53:04;;;;;;;5.25;5.07;;;11.70;99.90;;;;;;3962856;30;20427;-91
2023/01/12 11:55:57;;;;;;;3.85;3.38;;;11.60;99.90;;;;;;3948619;30;20078;-91
2023/01/12 11:58:41;;;;;;;3.10;3.00;;;11.70;99.90;;;;;;3949411;30;20051;-90
2023/01/12 12:01:18;;;;;;;4.38;4.28;;;12.20;99.90;;;;;;3946497;30;20159;-90
2023/01/12 12:03:45;;;;;;;3.95;3.75;;;12.30;99.90;;;;;;3948544;30;20054;-92
2023/01/12 12:06:23;;;;;;;1.98;1.88;;;12.10;99.90;;;;;;3948799;30;20362;-91
2023/01/12 12:09:00;;;;;;;2.03;2.00;;;12.00;98.60;;;;;;3949516;30;20093;-92
2023/01/12 12:11:51;;;;;;;1.55;1.55;;;12.10;99.90;;;;;;3948194;30;20063;-91
2023/01/12 12:14:29;;;;;;;2.00;2.00;;;12.30;98.30;;;;;;3948798;30;20066;-90
2023/01/12 12:16:56;;;;;;;1.70;1.70;;;12.20;98.30;;;;;;3949359;30;20105;-90
2023/01/12 12:20:03;;;;;;;2.25;2.22;;;12.40;98.70;;;;;;3948701;30;20093;-92
2023/01/12 12:22:26;;;;;;;1.90;1.90;;;12.50;97.90;;;;;;3947568;30;20050;-91
2023/01/12 12:25:46;;;;;;;2.15;2.13;;;12.00;97.30;;;;;;3951851;30;20089;-91
2023/01/12 12:28:24;;;;;;;1.50;1.50;;;12.10;98.40;;;;;;3922480;30;20126;-91
2023/01/12 12:30:44;;;;;;;1.70;1.70;;;12.40;97.90;;;;;;3946226;30;20125;-91
2023/01/12 12:33:38;;;;;;;3.25;3.03;;;12.60;99.90;;;;;;3948611;30;20096;-91
2023/01/12 12:36:07;;;;;;;1.92;1.77;;;13.00;98.60;;;;;;3950558;30;20259;-90
2023/01/12 12:38:41;;;;;;;1.38;1.38;;;12.90;99.90;;;;;;3944071;30;20081;-91
2023/01/12 12:47:20;;;;;;;2.83;2.53;;;12.70;98.60;;;;;;3945452;30;20398;-88
2023/01/12 12:49:40;;;;;;;2.28;2.17;;;12.70;97.80;;;;;;3940986;30;20278;-88
2023/01/12 12:52:01;;;;;;;2.28;2.20;;;12.50;96.90;;;;;;3948975;30;20408;-88
2023/01/12 12:54:22;;;;;;;2.45;2.25;;;12.40;97.50;;;;;;3948619;30;20047;-88
2023/01/12 12:56:43;;;;;;;1.33;1.33;;;12.40;97.30;;;;;;3948466;30;20105;-88
2023/01/12 12:59:03;;;;;;;2.72;1.70;;;12.80;97.50;;;;;;3946741;30;20078;-88
2023/01/12 13:01:23;;;;;;;1.65;1.65;;;12.90;98.40;;;;;;3947784;30;20059;-87
2023/01/12 13:03:48;;;;;;;1.27;1.27;;;13.10;97.30;;;;;;3950250;30;20097;-88
2023/01/12 13:06:15;;;;;;;1.40;1.40;;;13.10;97.20;;;;;;3948129;30;20424;-88
2023/01/12 13:08:35;;;;;;;1.55;1.50;;;13.00;97.80;;;;;;3959095;30;20455;-88
2023/01/12 13:10:57;;;;;;;1.35;1.35;;;13.10;96.20;;;;;;3949183;30;20300;-87
2023/01/12 13:13:32;;;;;;;2.83;1.40;;;13.00;96.80;;;;;;3948579;30;20242;-88